Time;durP1;ratioP1;P1;durP2;ratioP2;P2;SDS_P1;SDS_P2;PMS_P1;PMS_P2;Temp;Humidity;BMP_temperature;BMP_pressure;BME280_temperature;BME280_humidity;BME280_pressure;Samples;Min_cycle;Max_cycle;Signal;HPM_P1;HPM_P2
2021/09/04 00:01:17;;;;;;;13.40;12.00;;;;;;;;;;5055087;28;20028;-78
2021/09/04 00:03:44;;;;;;;22.88;13.05;;;;;;;;;;5068448;28;20064;-78
2021/09/04 00:06:10;;;;;;;15.38;12.75;;;;;;;;;;5061919;28;20064;-77
2021/09/04 00:08:43;;;;;;;14.82;12.80;;;;;;;;;;5037394;28;20029;-79
2021/09/04 00:11:09;;;;;;;15.90;12.40;;;;;;;;;;5038178;28;20467;-80
2021/09/04 00:13:35;;;;;;;12.45;11.18;;;;;;;;;;5037886;28;20403;-77
2021/09/04 00:16:01;;;;;;;13.43;12.13;;;;;;;;;;5037698;28;20055;-79
2021/09/04 00:18:30;;;;;;;13.23;11.80;;;;;;;;;;5037051;28;20034;-75
2021/09/04 00:20:56;;;;;;;17.88;12.82;;;;;;;;;;5037397;28;20063;-78
2021/09/04 00:23:22;;;;;;;24.83;11.93;;;;;;;;;;5036534;28;20032;-76
2021/09/04 00:25:48;;;;;;;14.60;12.63;;;;;;;;;;5036383;28;20374;-78
2021/09/04 00:28:14;;;;;;;15.25;12.48;;;;;;;;;;5037030;28;20074;-75
2021/09/04 00:30:40;;;;;;;17.45;12.13;;;;;;;;;;5036863;28;20034;-74
2021/09/04 00:33:07;;;;;;;13.25;11.95;;;;;;;;;;5035795;28;20061;-77
2021/09/04 00:35:33;;;;;;;15.98;11.23;;;;;;;;;;5035779;28;20017;-76
2021/09/04 00:37:59;;;;;;;15.07;12.27;;;;;;;;;;5035420;28;20037;-78
2021/09/04 00:40:25;;;;;;;13.10;11.48;;;;;;;;;;5036240;28;20038;-77
2021/09/04 00:42:51;;;;;;;14.45;12.55;;;;;;;;;;5036384;28;20467;-78
2021/09/04 00:45:17;;;;;;;14.35;11.82;;;;;;;;;;5036533;28;20029;-78
2021/09/04 00:47:59;;;;;;;13.05;11.25;;;;;;;;;;5036450;28;20049;-78
2021/09/04 00:50:25;;;;;;;16.17;12.52;;;;;;;;;;5036272;28;20060;-78
2021/09/04 00:52:52;;;;;;;14.45;11.85;;;;;;;;;;5037909;28;20036;-81
2021/09/04 00:55:18;;;;;;;13.45;11.68;;;;;;;;;;5045563;28;20049;-78
2021/09/04 00:57:44;;;;;;;12.85;11.35;;;;;;;;;;5056488;28;20029;-79
2021/09/04 01:00:10;;;;;;;14.60;11.93;;;;;;;;;;5056296;28;20029;-77
2021/09/04 01:02:36;;;;;;;14.23;12.57;;;;;;;;;;5068877;28;20088;-83
2021/09/04 01:05:02;;;;;;;17.30;13.02;;;;;;;;;;5077337;28;20016;-77
2021/09/04 01:07:28;;;;;;;12.65;11.35;;;;;;;;;;5077319;28;20413;-79
2021/09/04 01:09:55;;;;;;;13.77;11.98;;;;;;;;;;5076835;28;20037;-81
2021/09/04 01:12:21;;;;;;;15.02;12.13;;;;;;;;;;5075096;28;20382;-79
2021/09/04 01:14:47;;;;;;;17.45;11.95;;;;;;;;;;5073551;28;20363;-79
2021/09/04 01:17:13;;;;;;;15.43;11.65;;;;;;;;;;5074060;28;20052;-79
2021/09/04 01:19:39;;;;;;;16.58;11.65;;;;;;;;;;5074126;28;20032;-79
2021/09/04 01:22:05;;;;;;;13.13;11.80;;;;;;;;;;5073875;28;20373;-79
2021/09/04 01:24:31;;;;;;;15.10;12.07;;;;;;;;;;5073808;28;20020;-80
2021/09/04 01:26:57;;;;;;;13.45;11.73;;;;;;;;;;5073905;28;20025;-80
2021/09/04 01:29:23;;;;;;;12.55;10.80;;;;;;;;;;5074016;28;20060;-79
2021/09/04 01:31:49;;;;;;;12.27;11.05;;;;;;;;;;5073589;28;20040;-79
2021/09/04 01:34:15;;;;;;;12.73;11.13;;;;;;;;;;5074836;28;20514;-80
2021/09/04 01:36:41;;;;;;;12.57;11.07;;;;;;;;;;5074168;28;20107;-80
2021/09/04 01:39:08;;;;;;;14.02;11.98;;;;;;;;;;5073916;28;20395;-79
2021/09/04 01:41:34;;;;;;;11.65;10.55;;;;;;;;;;5073892;28;20028;-80
2021/09/04 01:44:00;;;;;;;19.83;12.52;;;;;;;;;;5073525;28;20025;-80
2021/09/04 01:46:26;;;;;;;15.43;12.50;;;;;;;;;;5073401;28;20079;-80
2021/09/04 01:48:52;;;;;;;13.43;11.77;;;;;;;;;;5074466;28;20021;-80
2021/09/04 01:51:18;;;;;;;14.10;10.48;;;;;;;;;;5073476;28;20033;-80
2021/09/04 01:53:45;;;;;;;14.70;11.85;;;;;;;;;;5073729;28;20028;-80
2021/09/04 01:56:11;;;;;;;11.45;10.30;;;;;;;;;;5073800;28;20161;-80
2021/09/04 01:58:37;;;;;;;17.83;12.35;;;;;;;;;;5073734;28;20025;-81
2021/09/04 02:01:03;;;;;;;15.55;11.40;;;;;;;;;;5073838;28;20571;-80
2021/09/04 02:03:29;;;;;;;14.18;11.57;;;;;;;;;;5073868;28;20023;-80
2021/09/04 02:05:55;;;;;;;12.98;10.27;;;;;;;;;;5073466;28;20082;-80
2021/09/04 02:08:21;;;;;;;13.75;11.80;;;;;;;;;;5073496;28;20474;-80
2021/09/04 02:10:47;;;;;;;13.15;11.88;;;;;;;;;;5073295;28;20481;-80
2021/09/04 02:13:13;;;;;;;13.30;11.68;;;;;;;;;;5073198;28;20420;-80
2021/09/04 02:15:39;;;;;;;13.43;10.50;;;;;;;;;;5073247;28;20021;-80
2021/09/04 02:18:05;;;;;;;13.43;11.95;;;;;;;;;;5073840;28;20066;-80
2021/09/04 02:20:31;;;;;;;11.32;10.15;;;;;;;;;;5073697;28;20024;-80
2021/09/04 02:22:58;;;;;;;15.60;11.68;;;;;;;;;;5073366;28;20032;-81
2021/09/04 02:25:24;;;;;;;13.75;11.90;;;;;;;;;;5073307;28;20496;-80
2021/09/04 02:27:50;;;;;;;11.95;10.68;;;;;;;;;;5073118;28;20610;-80
2021/09/04 02:30:16;;;;;;;12.20;10.82;;;;;;;;;;5073051;28;20473;-80
2021/09/04 02:32:42;;;;;;;13.95;10.77;;;;;;;;;;5073618;28;20529;-80
2021/09/04 02:35:08;;;;;;;12.63;11.07;;;;;;;;;;5073159;28;20046;-80
2021/09/04 02:37:34;;;;;;;15.20;12.32;;;;;;;;;;5073805;28;20048;-80
2021/09/04 02:40:00;;;;;;;16.88;10.73;;;;;;;;;;5073975;28;20025;-80
2021/09/04 02:42:26;;;;;;;12.57;10.45;;;;;;;;;;5073401;28;20020;-80
2021/09/04 02:44:52;;;;;;;15.07;11.23;;;;;;;;;;5073200;28;20095;-80
2021/09/04 02:47:18;;;;;;;12.13;10.45;;;;;;;;;;5073245;28;20074;-81
2021/09/04 02:49:44;;;;;;;13.40;11.52;;;;;;;;;;5072739;28;20466;-81
2021/09/04 02:52:10;;;;;;;11.38;10.15;;;;;;;;;;5072852;28;20409;-81
2021/09/04 02:54:37;;;;;;;11.27;10.18;;;;;;;;;;5073161;28;20088;-81
2021/09/04 02:57:03;;;;;;;11.68;10.43;;;;;;;;;;5073655;28;20029;-80
2021/09/04 02:59:29;;;;;;;13.13;11.02;;;;;;;;;;5073182;28;20404;-80
2021/09/04 03:01:55;;;;;;;11.25;10.15;;;;;;;;;;5076006;28;20032;-81
2021/09/04 03:04:21;;;;;;;11.40;10.20;;;;;;;;;;5076532;28;20021;-81
2021/09/04 03:06:47;;;;;;;12.32;10.45;;;;;;;;;;5077056;28;20021;-80
2021/09/04 03:09:13;;;;;;;13.02;9.90;;;;;;;;;;5076371;28;20378;-80
2021/09/04 03:11:39;;;;;;;12.75;10.45;;;;;;;;;;5076525;28;20386;-80
2021/09/04 03:14:05;;;;;;;11.23;9.85;;;;;;;;;;5076218;28;20032;-80
2021/09/04 03:16:31;;;;;;;10.65;9.63;;;;;;;;;;5075805;28;20048;-80
2021/09/04 03:18:57;;;;;;;10.95;9.88;;;;;;;;;;5077184;28;20036;-82
2021/09/04 03:21:24;;;;;;;10.52;9.40;;;;;;;;;;5076814;28;20029;-82
2021/09/04 03:23:50;;;;;;;11.57;9.32;;;;;;;;;;5075901;28;20029;-82
2021/09/04 03:26:16;;;;;;;10.40;9.40;;;;;;;;;;5076546;28;20082;-82
2021/09/04 03:28:42;;;;;;;9.75;8.82;;;;;;;;;;5076143;28;20058;-82
2021/09/04 03:31:08;;;;;;;18.52;10.80;;;;;;;;;;5076170;28;20028;-82
2021/09/04 03:33:34;;;;;;;10.80;9.75;;;;;;;;;;5076348;28;20048;-81
2021/09/04 03:36:00;;;;;;;11.10;9.77;;;;;;;;;;5076079;28;20572;-81
2021/09/04 03:38:27;;;;;;;11.18;10.05;;;;;;;;;;5076279;28;20031;-81
2021/09/04 03:40:53;;;;;;;12.50;9.35;;;;;;;;;;5075951;28;20419;-82
2021/09/04 03:43:19;;;;;;;9.68;8.77;;;;;;;;;;5075718;28;20028;-82
2021/09/04 03:45:45;;;;;;;10.20;9.20;;;;;;;;;;5075663;28;20099;-82
2021/09/04 03:48:11;;;;;;;9.32;8.38;;;;;;;;;;5075827;28;20021;-82
2021/09/04 03:50:37;;;;;;;9.45;8.45;;;;;;;;;;5075840;28;20075;-82
2021/09/04 03:53:03;;;;;;;8.95;8.15;;;;;;;;;;5075758;28;20371;-82
2021/09/04 03:55:29;;;;;;;12.38;9.70;;;;;;;;;;5075735;28;20474;-82
2021/09/04 03:57:55;;;;;;;9.13;8.32;;;;;;;;;;5075737;28;20031;-82
2021/09/04 04:00:21;;;;;;;10.45;9.27;;;;;;;;;;5075662;28;20037;-82
2021/09/04 04:02:47;;;;;;;10.10;9.20;;;;;;;;;;5075736;28;20028;-82
2021/09/04 04:05:14;;;;;;;9.55;8.65;;;;;;;;;;5075788;28;20033;-82
2021/09/04 04:07:40;;;;;;;9.52;8.57;;;;;;;;;;5074923;28;20470;-82
2021/09/04 04:10:06;;;;;;;10.55;9.05;;;;;;;;;;5075739;28;20033;-82
2021/09/04 04:12:33;;;;;;;11.10;8.82;;;;;;;;;;5074009;28;20065;-82
2021/09/04 04:14:59;;;;;;;8.77;7.88;;;;;;;;;;5075178;28;20416;-82
2021/09/04 04:17:25;;;;;;;9.15;8.27;;;;;;;;;;5075422;28;20096;-82
2021/09/04 04:19:51;;;;;;;8.80;7.93;;;;;;;;;;5074950;28;20028;-82
2021/09/04 04:22:17;;;;;;;9.27;8.38;;;;;;;;;;5075544;28;20477;-82
2021/09/04 04:24:43;;;;;;;7.82;7.10;;;;;;;;;;5075086;28;20432;-82
2021/09/04 04:27:09;;;;;;;9.52;8.48;;;;;;;;;;5075088;28;20020;-82
2021/09/04 04:29:35;;;;;;;10.88;8.20;;;;;;;;;;5074466;28;20029;-81
2021/09/04 04:32:01;;;;;;;8.55;7.68;;;;;;;;;;5075309;28;20074;-82
2021/09/04 04:34:27;;;;;;;8.40;7.63;;;;;;;;;;5075023;28;20070;-82
2021/09/04 04:36:53;;;;;;;8.85;7.68;;;;;;;;;;5075033;28;20485;-82
2021/09/04 04:39:19;;;;;;;7.72;7.00;;;;;;;;;;5075034;28;20021;-82
2021/09/04 04:41:45;;;;;;;10.70;9.63;;;;;;;;;;5074559;28;20455;-83
2021/09/04 04:44:12;;;;;;;11.50;8.27;;;;;;;;;;5072311;28;20421;-79
2021/09/04 04:46:38;;;;;;;9.13;8.32;;;;;;;;;;5073604;28;20024;-80
2021/09/04 04:49:04;;;;;;;7.72;7.03;;;;;;;;;;5074331;28;20020;-83
2021/09/04 04:51:30;;;;;;;17.25;8.20;;;;;;;;;;5075276;28;20072;-82
2021/09/04 04:53:56;;;;;;;9.00;8.02;;;;;;;;;;5075439;28;20024;-83
2021/09/04 04:56:22;;;;;;;8.23;7.43;;;;;;;;;;5074847;28;20052;-80
2021/09/04 04:58:48;;;;;;;7.57;6.88;;;;;;;;;;5073316;28;20024;-80
2021/09/04 05:01:14;;;;;;;8.65;7.75;;;;;;;;;;5074750;28;20458;-82
2021/09/04 05:03:40;;;;;;;14.05;7.53;;;;;;;;;;5075105;28;20612;-83
2021/09/04 05:06:06;;;;;;;7.00;6.40;;;;;;;;;;5074561;28;20051;-85
2021/09/04 05:08:32;;;;;;;7.88;7.18;;;;;;;;;;5072898;28;20118;-81
2021/09/04 05:10:58;;;;;;;8.27;7.47;;;;;;;;;;5074352;28;20515;-87
2021/09/04 05:13:24;;;;;;;8.57;7.50;;;;;;;;;;5074198;28;20351;-87
2021/09/04 05:15:51;;;;;;;7.75;6.95;;;;;;;;;;5074462;28;20032;-83
2021/09/04 05:18:17;;;;;;;7.72;7.00;;;;;;;;;;5071832;28;20024;-85
2021/09/04 05:20:43;;;;;;;8.43;7.55;;;;;;;;;;5074685;28;20029;-86
2021/09/04 05:23:10;;;;;;;8.68;7.88;;;;;;;;;;5074519;28;20028;-86
2021/09/04 05:25:38;;;;;;;7.68;6.97;;;;;;;;;;5074336;28;20100;-82
2021/09/04 05:28:05;;;;;;;7.70;6.90;;;;;;;;;;5071332;28;20091;-89
2021/09/04 05:30:31;;;;;;;7.60;6.93;;;;;;;;;;5074487;28;20123;-86
2021/09/04 05:32:57;;;;;;;7.82;7.10;;;;;;;;;;5074811;28;20093;-83
2021/09/04 05:35:23;;;;;;;14.60;6.22;;;;;;;;;;5074346;28;20017;-84
2021/09/04 05:37:49;;;;;;;7.38;6.68;;;;;;;;;;5071283;28;20028;-87
2021/09/04 05:40:16;;;;;;;8.23;7.43;;;;;;;;;;5074608;28;20028;-82
2021/09/04 05:42:48;;;;;;;8.18;7.47;;;;;;;;;;5072036;28;20650;-84
2021/09/04 05:45:18;;;;;;;7.20;6.55;;;;;;;;;;5070485;28;20025;-82
2021/09/04 05:47:46;;;;;;;9.02;7.13;;;;;;;;;;5076950;28;20029;-83
2021/09/04 05:50:12;;;;;;;8.23;7.43;;;;;;;;;;5052976;28;20033;-84
2021/09/04 05:52:38;;;;;;;9.50;6.35;;;;;;;;;;5068875;28;20470;-84
2021/09/04 05:55:04;;;;;;;6.68;6.07;;;;;;;;;;5073858;28;20057;-79
2021/09/04 05:57:31;;;;;;;6.70;6.05;;;;;;;;;;5074220;28;20024;-80
2021/09/04 05:59:57;;;;;;;12.73;6.68;;;;;;;;;;5073968;28;20032;-79
2021/09/04 06:02:23;;;;;;;6.80;6.22;;;;;;;;;;5074187;28;20031;-79
2021/09/04 06:04:49;;;;;;;6.95;6.35;;;;;;;;;;5074312;28;20028;-79
2021/09/04 06:07:15;;;;;;;6.75;6.15;;;;;;;;;;5075253;28;20150;-75
2021/09/04 06:09:41;;;;;;;5.95;5.45;;;;;;;;;;5072229;28;20478;-76
2021/09/04 06:12:07;;;;;;;9.55;5.95;;;;;;;;;;5073853;28;20602;-77
2021/09/04 06:14:33;;;;;;;6.78;6.18;;;;;;;;;;5074303;28;20020;-82
2021/09/04 06:16:59;;;;;;;6.65;6.05;;;;;;;;;;5074572;28;20051;-85
2021/09/04 06:19:25;;;;;;;6.00;5.40;;;;;;;;;;5074882;28;20526;-84
2021/09/04 06:21:52;;;;;;;6.15;5.65;;;;;;;;;;5072607;28;20478;-83
2021/09/04 06:24:18;;;;;;;11.50;6.22;;;;;;;;;;5074174;28;20198;-84
2021/09/04 06:26:44;;;;;;;6.88;6.28;;;;;;;;;;5074084;28;20024;-84
2021/09/04 06:29:10;;;;;;;9.05;5.68;;;;;;;;;;5073901;28;20033;-78
2021/09/04 06:31:36;;;;;;;6.80;6.15;;;;;;;;;;5072621;28;20115;-79
2021/09/04 06:34:02;;;;;;;7.05;6.38;;;;;;;;;;5073680;28;20024;-78
2021/09/04 06:36:29;;;;;;;6.35;5.78;;;;;;;;;;5076584;28;20021;-77
2021/09/04 06:38:55;;;;;;;6.50;5.90;;;;;;;;;;5077606;28;20478;-82
2021/09/04 06:41:21;;;;;;;5.72;5.18;;;;;;;;;;5076698;28;20428;-80
2021/09/04 06:43:47;;;;;;;5.93;5.43;;;;;;;;;;5077363;28;20032;-79
2021/09/04 06:46:13;;;;;;;6.72;6.03;;;;;;;;;;5077706;28;20052;-79
2021/09/04 06:48:39;;;;;;;6.13;5.53;;;;;;;;;;5077306;28;20025;-85
2021/09/04 06:51:05;;;;;;;5.38;4.88;;;;;;;;;;5076231;28;20531;-84
2021/09/04 06:53:31;;;;;;;5.32;4.82;;;;;;;;;;5077273;28;20376;-79
2021/09/04 06:55:57;;;;;;;5.60;5.10;;;;;;;;;;5077458;28;20088;-79
2021/09/04 06:58:23;;;;;;;15.93;5.90;;;;;;;;;;5073624;28;20027;-80
2021/09/04 07:00:49;;;;;;;12.63;5.95;;;;;;;;;;5076839;28;20043;-79
2021/09/04 07:03:15;;;;;;;10.30;5.90;;;;;;;;;;5077130;28;20056;-78
2021/09/04 07:05:41;;;;;;;6.05;5.25;;;;;;;;;;5078996;28;20016;-80
2021/09/04 07:08:07;;;;;;;12.52;5.57;;;;;;;;;;5078253;28;20040;-78
2021/09/04 07:10:34;;;;;;;10.05;5.65;;;;;;;;;;5076203;28;20036;-77
2021/09/04 07:13:00;;;;;;;6.68;5.75;;;;;;;;;;5077755;28;20016;-78
2021/09/04 07:15:27;;;;;;;6.57;5.85;;;;;;;;;;5078765;28;20025;-81
2021/09/04 07:17:53;;;;;;;6.43;5.50;;;;;;;;;;5078017;28;20039;-77
2021/09/04 07:20:19;;;;;;;6.90;5.45;;;;;;;;;;5077735;28;20086;-79
2021/09/04 07:22:45;;;;;;;8.63;6.07;;;;;;;;;;5076855;28;20385;-78
2021/09/04 07:25:11;;;;;;;8.15;5.78;;;;;;;;;;5078572;28;20035;-78
2021/09/04 07:27:38;;;;;;;10.13;5.20;;;;;;;;;;5077624;28;20024;-79
2021/09/04 07:30:04;;;;;;;9.32;4.75;;;;;;;;;;5076996;28;20134;-78
2021/09/04 07:32:30;;;;;;;20.77;5.45;;;;;;;;;;5077533;28;20024;-77
2021/09/04 07:34:57;;;;;;;5.97;5.18;;;;;;;;;;5077344;28;20527;-78
2021/09/04 07:37:24;;;;;;;7.03;4.60;;;;;;;;;;5075934;28;20024;-79
2021/09/04 07:39:50;;;;;;;9.35;4.88;;;;;;;;;;5077520;28;20046;-78
2021/09/04 07:42:16;;;;;;;11.70;4.20;;;;;;;;;;5078217;28;20032;-78
2021/09/04 07:44:42;;;;;;;7.28;4.78;;;;;;;;;;5079899;28;20026;-82
2021/09/04 07:47:08;;;;;;;5.63;4.70;;;;;;;;;;5077192;28;20066;-81
2021/09/04 07:49:34;;;;;;;8.23;4.53;;;;;;;;;;5078870;28;20049;-81
2021/09/04 07:52:00;;;;;;;9.65;4.97;;;;;;;;;;5076671;28;20024;-78
2021/09/04 07:54:26;;;;;;;10.68;4.43;;;;;;;;;;5076645;28;20053;-78
2021/09/04 07:56:52;;;;;;;8.15;4.57;;;;;;;;;;5077675;28;20021;-81
2021/09/04 07:59:19;;;;;;;13.98;6.45;;;;;;;;;;5080020;28;20033;-79
2021/09/04 08:01:45;;;;;;;8.73;4.70;;;;;;;;;;5074492;28;20359;-78
2021/09/04 08:04:13;;;;;;;11.23;5.57;;;;;;;;;;5077695;28;20032;-83
2021/09/04 08:06:39;;;;;;;6.80;5.30;;;;;;;;;;5075934;28;20705;-76
2021/09/04 08:09:05;;;;;;;7.07;4.93;;;;;;;;;;5072377;28;20032;-78
2021/09/04 08:11:31;;;;;;;16.83;4.68;;;;;;;;;;5075042;28;20031;-76
2021/09/04 08:13:57;;;;;;;5.30;4.63;;;;;;;;;;5075622;28;20029;-74
2021/09/04 08:16:23;;;;;;;6.53;4.05;;;;;;;;;;5075192;28;20501;-77
2021/09/04 08:18:49;;;;;;;5.07;4.22;;;;;;;;;;5075965;28;20470;-75
2021/09/04 08:21:15;;;;;;;19.25;5.47;;;;;;;;;;5076660;28;20029;-77
2021/09/04 08:23:41;;;;;;;5.10;4.60;;;;;;;;;;5076549;28;20017;-78
2021/09/04 08:26:07;;;;;;;5.03;4.45;;;;;;;;;;5076361;28;20086;-74
2021/09/04 08:28:34;;;;;;;10.13;4.57;;;;;;;;;;5074888;28;20469;-77
2021/09/04 08:31:00;;;;;;;4.60;4.22;;;;;;;;;;5075379;28;20029;-78
2021/09/04 08:33:26;;;;;;;5.07;3.95;;;;;;;;;;5075539;28;20103;-72
2021/09/04 08:35:52;;;;;;;11.65;5.88;;;;;;;;;;5073486;28;20020;-74
2021/09/04 08:38:18;;;;;;;4.95;4.38;;;;;;;;;;5074605;28;20086;-77
2021/09/04 08:40:46;;;;;;;8.07;4.25;;;;;;;;;;5076146;28;20170;-73
2021/09/04 08:43:12;;;;;;;5.97;4.88;;;;;;;;;;5075730;28;20077;-77
2021/09/04 08:45:38;;;;;;;5.53;4.75;;;;;;;;;;5074013;28;20107;-75
2021/09/04 08:48:04;;;;;;;5.13;4.63;;;;;;;;;;5073907;28;20013;-74
2021/09/04 08:50:30;;;;;;;8.48;4.22;;;;;;;;;;5074173;28;20119;-75
2021/09/04 08:52:56;;;;;;;4.18;3.85;;;;;;;;;;5073160;28;20036;-75
2021/09/04 08:55:22;;;;;;;4.90;4.05;;;;;;;;;;5074042;28;20052;-76
2021/09/04 08:57:49;;;;;;;4.65;4.20;;;;;;;;;;5073844;28;20048;-76
2021/09/04 09:00:35;;;;;;;5.30;4.75;;;;;;;;;;5073651;28;20032;-74
2021/09/04 09:03:01;;;;;;;7.55;4.35;;;;;;;;;;5066901;28;20466;-74
2021/09/04 09:05:29;;;;;;;6.40;5.75;;;;;;;;;;5073156;28;20033;-74
2021/09/04 09:07:55;;;;;;;8.60;4.93;;;;;;;;;;5074671;28;20119;-77
2021/09/04 09:10:30;;;;;;;7.43;4.63;;;;;;;;;;5075715;28;20040;-75
2021/09/04 09:12:57;;;;;;;5.45;5.00;;;;;;;;;;5073485;28;20098;-75
2021/09/04 09:15:23;;;;;;;6.63;4.93;;;;;;;;;;5073848;28;20485;-79
2021/09/04 09:17:56;;;;;;;5.68;4.68;;;;;;;;;;5073866;28;20073;-73
2021/09/04 09:20:23;;;;;;;6.72;5.30;;;;;;;;;;5071495;28;20033;-74
2021/09/04 09:22:50;;;;;;;8.32;4.88;;;;;;;;;;5074114;28;20027;-75
2021/09/04 09:25:16;;;;;;;4.63;4.22;;;;;;;;;;5074389;28;20543;-76
2021/09/04 09:28:02;;;;;;;5.55;5.05;;;;;;;;;;5074828;28;20744;-76
2021/09/04 09:30:29;;;;;;;6.78;5.20;;;;;;;;;;5063197;28;20033;-77
2021/09/04 09:32:55;;;;;;;14.30;5.88;;;;;;;;;;5073452;28;20036;-78
2021/09/04 09:35:29;;;;;;;8.23;5.05;;;;;;;;;;5074829;28;20025;-75
2021/09/04 09:37:56;;;;;;;4.80;4.40;;;;;;;;;;5072305;28;20023;-76
2021/09/04 09:40:23;;;;;;;7.95;5.03;;;;;;;;;;5074804;28;20062;-79
2021/09/04 09:42:49;;;;;;;5.57;5.07;;;;;;;;;;5073583;28;20101;-76
2021/09/04 09:45:15;;;;;;;5.50;5.00;;;;;;;;;;5073061;28;20025;-74
2021/09/04 09:47:56;;;;;;;6.45;5.78;;;;;;;;;;5073053;28;20082;-74
2021/09/04 09:50:22;;;;;;;6.00;5.40;;;;;;;;;;5071871;28;20036;-77
2021/09/04 09:52:48;;;;;;;5.82;5.30;;;;;;;;;;5071443;28;20020;-75
2021/09/04 09:55:14;;;;;;;5.68;5.18;;;;;;;;;;5071864;28;20493;-75
2021/09/04 09:57:41;;;;;;;7.97;5.75;;;;;;;;;;5073936;28;20489;-77
2021/09/04 10:00:08;;;;;;;5.70;5.20;;;;;;;;;;5074132;28;20754;-77
2021/09/04 10:02:34;;;;;;;9.07;6.15;;;;;;;;;;5073487;28;20012;-75
2021/09/04 10:05:00;;;;;;;6.88;5.88;;;;;;;;;;5073230;28;20021;-77
2021/09/04 10:07:26;;;;;;;14.07;5.60;;;;;;;;;;5074075;28;20020;-75
2021/09/04 10:09:52;;;;;;;6.35;5.85;;;;;;;;;;5075217;28;20478;-75
2021/09/04 10:12:18;;;;;;;5.85;5.35;;;;;;;;;;5077412;28;20595;-74
2021/09/04 10:14:46;;;;;;;8.75;5.70;;;;;;;;;;5077452;28;20390;-77
2021/09/04 10:17:12;;;;;;;7.45;5.95;;;;;;;;;;5076858;28;20378;-74
2021/09/04 10:19:39;;;;;;;9.90;5.60;;;;;;;;;;5075895;28;20109;-76
2021/09/04 10:22:06;;;;;;;6.95;5.78;;;;;;;;;;5076546;28;20103;-73
2021/09/04 10:24:48;;;;;;;6.60;6.03;;;;;;;;;;5075769;28;20112;-72
2021/09/04 10:27:15;;;;;;;8.05;6.10;;;;;;;;;;5077666;28;20469;-77
2021/09/04 10:29:42;;;;;;;8.93;6.22;;;;;;;;;;5078943;28;20025;-76
2021/09/04 10:32:08;;;;;;;6.70;6.10;;;;;;;;;;5077255;28;20047;-75
2021/09/04 10:34:36;;;;;;;6.75;6.13;;;;;;;;;;5076272;28;20077;-75
2021/09/04 10:37:03;;;;;;;6.72;6.03;;;;;;;;;;5076249;28;20485;-78
2021/09/04 10:39:49;;;;;;;7.68;6.97;;;;;;;;;;5074623;28;20604;-76
2021/09/04 10:42:18;;;;;;;13.05;8.23;;;;;;;;;;5062024;28;20028;-76
2021/09/04 10:44:45;;;;;;;8.65;7.63;;;;;;;;;;5075995;28;20029;-76
2021/09/04 10:47:11;;;;;;;8.55;7.25;;;;;;;;;;5076061;28;20029;-75
2021/09/04 10:49:38;;;;;;;10.13;7.75;;;;;;;;;;5076781;28;20063;-76
2021/09/04 10:52:04;;;;;;;8.57;7.88;;;;;;;;;;5076494;28;20028;-76
2021/09/04 10:54:52;;;;;;;10.10;8.07;;;;;;;;;;5076741;28;20052;-76
2021/09/04 10:57:19;;;;;;;10.45;6.93;;;;;;;;;;5059921;28;20036;-78
2021/09/04 11:00:02;;;;;;;9.27;8.35;;;;;;;;;;5073587;28;20048;-75
2021/09/04 11:02:44;;;;;;;10.13;7.72;;;;;;;;;;5073264;28;20055;-75
2021/09/04 11:05:26;;;;;;;11.57;7.57;;;;;;;;;;5074465;28;20374;-75
2021/09/04 11:08:09;;;;;;;8.10;7.30;;;;;;;;;;5075329;28;20051;-76
2021/09/04 11:10:35;;;;;;;13.32;10.70;;;;;;;;;;5072670;28;20071;-75
2021/09/04 11:13:21;;;;;;;9.85;7.45;;;;;;;;;;5075572;28;20057;-74
2021/09/04 11:15:47;;;;;;;21.67;8.48;;;;;;;;;;5060757;28;20017;-77
2021/09/04 11:18:15;;;;;;;18.40;7.82;;;;;;;;;;5074765;28;20352;-78
2021/09/04 11:20:42;;;;;;;31.58;8.55;;;;;;;;;;5074384;28;20039;-76
2021/09/04 11:23:08;;;;;;;9.40;8.38;;;;;;;;;;5074050;28;20020;-76
2021/09/04 11:25:34;;;;;;;8.75;7.63;;;;;;;;;;5073915;28;20071;-75
2021/09/04 11:28:01;;;;;;;8.27;6.80;;;;;;;;;;5075706;28;20020;-76
2021/09/04 11:30:27;;;;;;;10.70;6.47;;;;;;;;;;5074356;28;20059;-77
2021/09/04 11:32:54;;;;;;;8.95;7.32;;;;;;;;;;5074248;28;20035;-76
2021/09/04 11:35:21;;;;;;;10.45;7.45;;;;;;;;;;5074174;28;20347;-76
2021/09/04 11:37:48;;;;;;;7.55;6.85;;;;;;;;;;5075889;28;20046;-75
2021/09/04 11:40:16;;;;;;;8.88;7.78;;;;;;;;;;5076102;28;20071;-76
2021/09/04 11:42:44;;;;;;;11.55;8.02;;;;;;;;;;5076048;28;20017;-77
2021/09/04 11:45:11;;;;;;;8.05;7.25;;;;;;;;;;5076194;28;20078;-76
2021/09/04 11:47:38;;;;;;;8.70;7.80;;;;;;;;;;5074939;28;20527;-76
2021/09/04 11:50:05;;;;;;;8.77;7.97;;;;;;;;;;5074525;28;20082;-76
2021/09/04 11:52:34;;;;;;;8.13;6.65;;;;;;;;;;5075415;28;20107;-76
2021/09/04 11:55:20;;;;;;;9.70;7.70;;;;;;;;;;5075305;28;20052;-76
2021/09/04 11:57:47;;;;;;;8.15;7.45;;;;;;;;;;5061226;28;20036;-75
2021/09/04 12:00:15;;;;;;;13.55;8.15;;;;;;;;;;5076304;28;20046;-74
2021/09/04 12:02:43;;;;;;;8.65;7.80;;;;;;;;;;5075474;28;20366;-73
2021/09/04 12:05:09;;;;;;;8.85;8.13;;;;;;;;;;5075636;28;20028;-74
2021/09/04 12:07:35;;;;;;;9.02;8.10;;;;;;;;;;5075704;28;20094;-74
2021/09/04 12:10:02;;;;;;;10.38;9.27;;;;;;;;;;5075870;28;20470;-73
2021/09/04 12:12:28;;;;;;;9.25;8.35;;;;;;;;;;5075638;28;20107;-73
2021/09/04 12:14:54;;;;;;;11.85;8.07;;;;;;;;;;5075503;28;20024;-73
2021/09/04 12:17:22;;;;;;;9.57;8.27;;;;;;;;;;5075555;28;20108;-72
2021/09/04 12:19:48;;;;;;;11.65;8.75;;;;;;;;;;5075145;28;20032;-73
2021/09/04 12:22:14;;;;;;;8.63;7.82;;;;;;;;;;5075171;28;20031;-73
2021/09/04 12:24:40;;;;;;;8.57;7.80;;;;;;;;;;5075645;28;20112;-73
2021/09/04 12:27:07;;;;;;;9.23;8.35;;;;;;;;;;5075078;28;20040;-73
2021/09/04 12:29:33;;;;;;;10.40;8.13;;;;;;;;;;5075025;28;20021;-74
2021/09/04 12:32:14;;;;;;;9.23;8.20;;;;;;;;;;5074754;28;20477;-73
2021/09/04 12:34:40;;;;;;;10.20;9.20;;;;;;;;;;5074327;28;20067;-73
2021/09/04 12:37:26;;;;;;;10.27;9.05;;;;;;;;;;5075045;28;20025;-72
2021/09/04 12:39:53;;;;;;;9.95;8.95;;;;;;;;;;5060137;28;20029;-72
2021/09/04 12:42:19;;;;;;;8.82;8.02;;;;;;;;;;5074766;28;20055;-72
2021/09/04 12:44:45;;;;;;;12.77;9.32;;;;;;;;;;5074973;28;20020;-72
2021/09/04 12:47:12;;;;;;;11.65;10.48;;;;;;;;;;5074367;28;20029;-73
2021/09/04 12:49:38;;;;;;;12.90;10.65;;;;;;;;;;5074962;28;20082;-72
2021/09/04 12:52:12;;;;;;;12.05;11.00;;;;;;;;;;5074978;28;20064;-73
2021/09/04 12:54:39;;;;;;;10.95;9.63;;;;;;;;;;5074421;28;20053;-70
2021/09/04 12:57:14;;;;;;;10.73;9.82;;;;;;;;;;5074826;28;20047;-76
2021/09/04 12:59:42;;;;;;;11.82;10.63;;;;;;;;;;5073931;28;20032;-76
2021/09/04 13:02:08;;;;;;;12.98;11.90;;;;;;;;;;5075434;28;20028;-76
2021/09/04 13:04:35;;;;;;;11.30;9.95;;;;;;;;;;5074876;28;20028;-77
2021/09/04 13:07:01;;;;;;;10.38;9.40;;;;;;;;;;5074312;28;20093;-79
2021/09/04 13:09:27;;;;;;;10.23;9.15;;;;;;;;;;5076620;28;20541;-78
2021/09/04 13:11:53;;;;;;;10.20;8.90;;;;;;;;;;5076301;28;20037;-78
2021/09/04 13:14:19;;;;;;;12.80;9.60;;;;;;;;;;5076213;28;20028;-78
2021/09/04 13:16:45;;;;;;;9.00;8.15;;;;;;;;;;5075750;28;20020;-81
2021/09/04 13:19:11;;;;;;;11.48;8.93;;;;;;;;;;5076871;28;20020;-78
2021/09/04 13:21:37;;;;;;;12.95;10.32;;;;;;;;;;5076678;28;20350;-78
2021/09/04 13:24:03;;;;;;;11.68;10.63;;;;;;;;;;5077060;28;20029;-78
2021/09/04 13:26:29;;;;;;;10.73;9.63;;;;;;;;;;5076703;28;20028;-79
2021/09/04 13:28:55;;;;;;;10.95;9.93;;;;;;;;;;5076055;28;20027;-78
2021/09/04 13:31:21;;;;;;;12.55;9.75;;;;;;;;;;5056433;28;20037;-77
2021/09/04 13:33:47;;;;;;;9.85;8.77;;;;;;;;;;5056492;28;20073;-79
2021/09/04 13:36:13;;;;;;;12.57;9.90;;;;;;;;;;5055129;28;20032;-78
2021/09/04 13:38:41;;;;;;;11.05;9.88;;;;;;;;;;5055611;28;20072;-79
2021/09/04 13:41:07;;;;;;;13.50;9.45;;;;;;;;;;5063267;28;20012;-79
2021/09/04 13:43:33;;;;;;;10.43;9.43;;;;;;;;;;5075416;28;20024;-77
2021/09/04 13:45:59;;;;;;;12.32;11.07;;;;;;;;;;5074974;28;20032;-77
2021/09/04 13:48:25;;;;;;;27.08;16.08;;;;;;;;;;5075077;28;20024;-76
2021/09/04 13:50:52;;;;;;;33.55;15.43;;;;;;;;;;5075436;28;20427;-75
2021/09/04 13:53:20;;;;;;;23.67;13.30;;;;;;;;;;5075587;28;20029;-78
2021/09/04 13:55:46;;;;;;;23.73;13.02;;;;;;;;;;5074224;28;20056;-78
2021/09/04 13:58:12;;;;;;;17.52;12.82;;;;;;;;;;5073008;28;20028;-78
2021/09/04 14:00:40;;;;;;;16.25;12.40;;;;;;;;;;5071659;28;20032;-77
2021/09/04 14:03:06;;;;;;;13.60;11.93;;;;;;;;;;5072740;28;20021;-78
2021/09/04 14:05:32;;;;;;;14.60;12.82;;;;;;;;;;5073983;28;20077;-75
2021/09/04 14:07:58;;;;;;;12.70;9.98;;;;;;;;;;5074076;28;20032;-76
2021/09/04 14:10:24;;;;;;;18.75;12.07;;;;;;;;;;5073993;28;20139;-76
2021/09/04 14:12:50;;;;;;;13.07;11.50;;;;;;;;;;5072353;28;20472;-76
2021/09/04 14:15:16;;;;;;;15.45;11.82;;;;;;;;;;5072728;28;20021;-76
2021/09/04 14:17:42;;;;;;;13.10;10.57;;;;;;;;;;5073372;28;20028;-78
2021/09/04 14:20:09;;;;;;;12.45;9.75;;;;;;;;;;5074232;28;20108;-77
2021/09/04 14:22:35;;;;;;;13.73;11.02;;;;;;;;;;5073111;28;20128;-79
2021/09/04 14:25:01;;;;;;;15.52;11.40;;;;;;;;;;5073315;28;20470;-78
2021/09/04 14:27:29;;;;;;;11.73;10.45;;;;;;;;;;5073323;28;20044;-81
2021/09/04 14:29:55;;;;;;;15.10;10.35;;;;;;;;;;5073629;28;20028;-85
2021/09/04 14:32:21;;;;;;;12.80;10.48;;;;;;;;;;5073469;28;20334;-76